AirNav   Phillips 66 Aviation Fuel
 
 381 users online  

VG53 Venning's Landing Airport
Rocky Mount, Virginia, USA

GOING TO ROCKY MOUNT?


FAA INFORMATION EFFECTIVE 20 JULY 2017

Location

FAA Identifier: VG53
Lat/Long: 37-02-37.0000N / 079-48-05.0000W
37-02.616667N / 079-48.083333W
37.0436111 / -79.8013889
(estimated)
Elevation: 1100 ft. / 335 m (estimated)
Variation: 10W (2000)
From city: 5 miles NE of ROCKY MOUNT, VA
Time zone: UTC -4 (UTC -5 during Standard Time)
Zip code: 24092

Airport Operations

Airport use: Private use. Permission required prior to landing
Activation date: 10/2002
Control tower: no
ARTCC: WASHINGTON CENTER
FSS: LEESBURG FLIGHT SERVICE STATION
Attendance: UNATNDD
Wind indicator: yes
Segmented circle: no

Airport Communications

WX ASOS at ROA (19 nm NW): PHONE 540-265-0680

Nearby radio navigation aids

VOR radial/distance  VOR name  Freq  Var
ODRr161/(18.9)WOODRUM VOR114.9008W
ROAr148/22.1ROANOKE VORTAC109.4004W
LYHr250/29.8LYNCHBURG VORTAC109.2005W
DANr328/(36.2)DANVILLE VOR113.1006W

 
NDB name  Hdg/Dist  Freq  Var  ID
VINTON166/10.427708WVIT ...- .. -
TECH115/30.536806WTEC - . -.-.
SLAMMER004/39.842307WSIF ... .. ..-.

Airport Services

Runway Information

Runway 5/23

Dimensions: 1976 x 80 ft. / 602 x 24 m
Surface: turf
RUNWAY 5  RUNWAY 23
Traffic pattern: leftleft

Airport Ownership and Management from official FAA records

Ownership: Privately-owned
Owner: S. GREGORY VENNING
695 LAKEWOOD FOREST RD
MONETA, VA 24121
Phone 540-721-3550
Manager: S. GREGORY VENNING
695 LAKEWOOD FOREST RD
MONETA, VA 24121
Phone 540-721-3550

Airport Operational Statistics

Aircraft based on the field: 4
Single engine airplanes: 3
Ultralights: 1
    

Instrument Procedures

There are no published instrument procedures at VG53.

Some nearby airports with instrument procedures:

W91 - Smith Mountain Lake Airport (11 nm E)
KROA - Roanoke-Blacksburg Regional Airport/Woodrum Field (19 nm NW)
W90 - New London Airport (26 nm NE)
KMTV - Blue Ridge Airport (27 nm SW)
KBCB - Virginia Tech/Montgomery Executive Airport (31 nm W)
 
Loc | Ops | Rwys | IFR | FBO | Links
Com | Nav | Svcs | Stats | Notes


 
Area around VG53 (Venning's Landing Airport)
 
Road maps at: MapQuest Bing Google
 
Aerial photo
No photo
 
Sectional chart

 
Airport distance calculator
Flying to Venning's Landing Airport? Find the distance to fly.

From to VG53

Sunrise and sunset
Times for 28-Jul-2017
 Local
(UTC-4)
 Zulu
(UTC)
Morning civil twilight05:5309:53
Sunrise06:2210:22
Sunset20:2900:29
Evening civil twilight20:5800:58

Current date and time
Zulu (UTC)  28-Jul-2017 10:02:32
Local (UTC-4)  28-Jul-2017 06:02:32
 
METAR
KROA 
18nm NW 
280954Z 30003KT 10SM SCT070 OVC110 22/21 A2991 RMK AO2 RAE0857 SLP117 P0000 T02220211 $
KMTV 
28nm S 
280955Z AUTO 00000KT 5SM -DZ SCT060 SCT075 OVC090 21/20 A2991 RMK AO2 T02080203
KBCB 
31nm W 
280955Z AUTO 00000KT 1 3/4SM BR OVC002 20/20 A2997 RMK AO2 T02030197
KLYH 
33nm NE 
280954Z AUTO VRB06KT 4SM RA BR BKN060 OVC080 22/21 A2989 RMK AO2 RAB42 SLP113 P0002 T02170206
TAF
KROA 
18nm NW 
280520Z 2806/2906 00000KT P6SM VCSH BKN100 TEMPO 2808/2811 BKN040 FM281500 21006KT P6SM VCTS OVC050CB FM290100 27004KT P6SM VCSH OVC030
NOTAMs
Click for the latest NOTAMs
NOTAMs are issued by the DoD/FAA and will open in a separate window not controlled by AirNav.

 

 
 

Would you like to see your business listed on this page?

 If your business provides an interesting product or service to pilots, flight crews, aircraft, or users of the Venning's Landing Airport, you should consider listing it here.  To start the listing process, click on the button below
 
Add a business
 

Other Pages about Venning's Landing Airport

Update a link
 
Copyright © AirNav, LLC. All rights reserved. Privacy Policy  Contact